createdAt,value
2022-08-26T00:00:38.163Z,5.30
2022-08-26T00:03:42.969Z,4.87
2022-08-26T00:06:46.437Z,5.20
2022-08-26T00:09:54.385Z,5.30
2022-08-26T00:12:58.358Z,5.40
2022-08-26T00:16:02.466Z,5.03
2022-08-26T00:19:06.830Z,5.30
2022-08-26T00:22:11.120Z,4.60
2022-08-26T00:25:15.704Z,4.70
2022-08-26T00:28:21.048Z,5.40
2022-08-26T00:31:24.624Z,5.13
2022-08-26T00:34:29.025Z,4.97
2022-08-26T00:37:32.251Z,5.07
2022-08-26T00:40:38.360Z,5.23
2022-08-26T00:43:47.331Z,5.30
2022-08-26T00:46:55.867Z,5.00
2022-08-26T00:50:03.015Z,5.20
2022-08-26T00:53:21.458Z,5.00
2022-08-26T00:56:30.318Z,5.37
2022-08-26T00:59:34.023Z,5.50
2022-08-26T01:02:37.997Z,5.70
2022-08-26T01:05:45.360Z,5.20
2022-08-26T01:08:49.382Z,5.43
2022-08-26T01:11:56.342Z,5.23
2022-08-26T01:14:59.565Z,5.13
2022-08-26T01:18:05.366Z,5.53
2022-08-26T01:21:20.030Z,5.00
2022-08-26T01:24:25.972Z,4.70
2022-08-26T01:27:32.391Z,5.10
2022-08-26T01:30:37.766Z,5.50
2022-08-26T01:33:52.023Z,5.73
2022-08-26T01:37:02.458Z,5.37
2022-08-26T01:40:10.539Z,5.17
2022-08-26T01:43:17.927Z,4.53
2022-08-26T01:46:23.699Z,5.27
2022-08-26T01:49:27.807Z,5.17
2022-08-26T01:52:32.988Z,5.07
2022-08-26T01:55:39.624Z,5.60
2022-08-26T01:58:47.348Z,5.00
2022-08-26T02:01:50.735Z,5.40
2022-08-26T02:05:00.609Z,5.53
2022-08-26T02:08:04.931Z,5.97
2022-08-26T02:11:09.514Z,5.60
2022-08-26T02:14:14.632Z,5.67
2022-08-26T02:17:21.249Z,4.97
2022-08-26T02:20:26.443Z,5.13
2022-08-26T02:23:29.891Z,5.80
2022-08-26T02:26:34.467Z,5.40
2022-08-26T02:29:39.647Z,5.10
2022-08-26T02:32:42.988Z,5.40
2022-08-26T02:35:46.159Z,5.23
2022-08-26T02:38:49.690Z,5.10
2022-08-26T02:41:56.854Z,5.23
2022-08-26T02:45:00.082Z,4.83
2022-08-26T02:48:10.987Z,5.30
2022-08-26T02:51:14.000Z,5.60
2022-08-26T02:54:17.669Z,5.53
2022-08-26T02:57:22.920Z,5.87
2022-08-26T03:00:27.457Z,5.07
2022-08-26T03:03:31.970Z,5.50
2022-08-26T03:06:35.607Z,5.70
2022-08-26T03:09:39.905Z,5.27
2022-08-26T03:12:45.279Z,5.60
2022-08-26T03:15:50.581Z,5.30
2022-08-26T03:18:53.782Z,5.57
2022-08-26T03:21:57.868Z,5.63
2022-08-26T03:25:01.222Z,6.20
2022-08-26T03:28:07.802Z,5.87
2022-08-26T03:31:11.787Z,5.93
2022-08-26T03:34:16.193Z,5.70
2022-08-26T03:37:19.330Z,5.70
2022-08-26T03:40:24.518Z,5.23
2022-08-26T03:43:33.530Z,5.93
2022-08-26T03:46:36.641Z,5.53
2022-08-26T03:49:39.858Z,5.83
2022-08-26T03:52:44.149Z,5.80
2022-08-26T03:55:47.884Z,5.50
2022-08-26T03:58:56.517Z,5.50
2022-08-26T04:01:59.583Z,5.97
2022-08-26T04:05:02.876Z,5.83
2022-08-26T04:08:06.725Z,6.27
2022-08-26T04:11:10.453Z,6.10
2022-08-26T04:14:21.352Z,6.03
2022-08-26T04:17:25.830Z,6.37
2022-08-26T04:20:29.368Z,5.90
2022-08-26T04:23:32.560Z,6.10
2022-08-26T04:26:50.718Z,5.53
2022-08-26T04:29:55.414Z,6.27
2022-08-26T04:32:58.546Z,5.40
2022-08-26T04:36:02.954Z,6.07
2022-08-26T04:39:07.158Z,6.00
2022-08-26T04:42:10.171Z,6.33
2022-08-26T04:45:14.506Z,6.00
2022-08-26T04:48:17.498Z,6.63
2022-08-26T04:51:27.246Z,6.57
2022-08-26T04:54:31.218Z,6.90
2022-08-26T04:57:34.464Z,7.10
2022-08-26T05:00:39.734Z,6.30
2022-08-26T05:03:43.662Z,6.40
2022-08-26T05:06:48.197Z,6.13
2022-08-26T05:09:51.274Z,6.07
2022-08-26T05:12:54.279Z,6.70
2022-08-26T05:16:02.928Z,6.20
2022-08-26T05:19:06.892Z,7.13
2022-08-26T05:22:13.174Z,7.00
2022-08-26T05:25:17.370Z,6.93
2022-08-26T05:28:21.889Z,6.47
2022-08-26T05:31:29.376Z,6.50
2022-08-26T05:34:33.229Z,6.90
2022-08-26T05:37:38.082Z,6.20
2022-08-26T05:40:44.395Z,5.93
2022-08-26T05:43:47.429Z,6.80
2022-08-26T05:46:53.229Z,6.60
2022-08-26T05:49:56.237Z,6.40
2022-08-26T05:52:59.314Z,6.40
2022-08-26T05:56:04.052Z,6.97
2022-08-26T05:59:14.218Z,6.40
2022-08-26T06:02:19.030Z,6.80
2022-08-26T06:05:22.416Z,6.10
2022-08-26T06:08:25.883Z,6.20
2022-08-26T06:11:32.421Z,6.87
2022-08-26T06:14:36.029Z,7.07
2022-08-26T06:17:40.406Z,7.07
2022-08-26T06:20:57.104Z,6.13
2022-08-26T06:24:20.684Z,7.27
2022-08-26T06:27:32.829Z,7.50
2022-08-26T06:30:41.411Z,7.23
2022-08-26T06:33:46.467Z,7.27
2022-08-26T06:36:53.128Z,7.40
2022-08-26T06:39:56.209Z,6.60
2022-08-26T06:43:00.640Z,6.40
2022-08-26T06:46:07.954Z,6.53
2022-08-26T06:49:17.214Z,6.77
2022-08-26T06:52:24.387Z,7.10
2022-08-26T06:55:27.786Z,6.93
2022-08-26T06:58:30.846Z,7.20
2022-08-26T07:01:38.785Z,6.63
2022-08-26T07:04:47.722Z,6.90
2022-08-26T07:07:52.417Z,7.53
2022-08-26T07:10:55.977Z,7.00
2022-08-26T07:13:59.358Z,6.53
2022-08-26T07:17:03.851Z,6.80
2022-08-26T07:20:09.393Z,6.00
2022-08-26T07:23:12.382Z,6.60
2022-08-26T07:26:17.733Z,6.40
2022-08-26T07:29:20.819Z,6.20
2022-08-26T07:32:27.804Z,6.23
2022-08-26T07:35:32.168Z,6.70
2022-08-26T07:38:36.734Z,7.80
2022-08-26T07:41:40.253Z,6.73
2022-08-26T07:44:44.817Z,6.50
2022-08-26T07:47:47.851Z,6.80
2022-08-26T07:50:53.722Z,7.00
2022-08-26T07:53:57.050Z,6.73
2022-08-26T07:57:00.822Z,6.80
2022-08-26T08:00:12.761Z,6.63
2022-08-26T08:03:16.117Z,6.93
2022-08-26T08:06:22.306Z,6.47
2022-08-26T08:09:25.872Z,6.20
2022-08-26T08:12:30.124Z,6.60
2022-08-26T08:15:33.219Z,6.13
2022-08-26T08:18:38.656Z,6.50
2022-08-26T08:21:45.097Z,7.30
2022-08-26T08:24:49.746Z,6.17
2022-08-26T08:27:53.140Z,6.30
2022-08-26T08:30:56.364Z,6.77
2022-08-26T08:33:59.535Z,6.37
2022-08-26T08:37:08.644Z,7.07
2022-08-26T08:40:18.276Z,6.77
2022-08-26T08:43:32.597Z,6.13
2022-08-26T08:46:42.544Z,7.23
2022-08-26T08:49:46.443Z,7.23
2022-08-26T08:52:56.138Z,7.10
2022-08-26T08:56:11.265Z,7.00
2022-08-26T08:59:17.217Z,6.67
2022-08-26T09:02:27.363Z,6.07
2022-08-26T09:05:36.887Z,6.90
2022-08-26T09:08:41.527Z,6.73
2022-08-26T09:11:44.590Z,6.90
2022-08-26T09:14:49.030Z,6.70
2022-08-26T09:18:10.967Z,6.73
2022-08-26T09:21:17.810Z,6.90
2022-08-26T09:24:22.398Z,6.03
2022-08-26T09:27:41.572Z,6.80
2022-08-26T09:30:47.469Z,5.77
2022-08-26T09:34:03.200Z,6.30
2022-08-26T09:37:08.451Z,6.67
2022-08-26T09:40:20.397Z,6.60
2022-08-26T09:43:23.731Z,6.57
2022-08-26T09:46:29.321Z,6.47
2022-08-26T09:49:36.468Z,6.77
2022-08-26T09:52:40.597Z,6.33
2022-08-26T09:55:49.720Z,6.10
2022-08-26T09:58:53.343Z,6.30
2022-08-26T10:01:56.801Z,6.43
2022-08-26T10:05:09.006Z,6.10
2022-08-26T10:08:25.976Z,6.47
2022-08-26T10:11:38.247Z,7.33
2022-08-26T10:14:48.954Z,7.40
2022-08-26T10:17:59.860Z,7.00
2022-08-26T10:21:08.308Z,7.73
2022-08-26T10:24:15.895Z,6.63
2022-08-26T10:27:32.985Z,7.00
2022-08-26T10:30:44.540Z,6.77
2022-08-26T10:33:48.122Z,8.63
2022-08-26T10:37:14.525Z,7.60
2022-08-26T10:40:25.509Z,7.83
2022-08-26T10:43:34.659Z,6.57
2022-08-26T10:46:45.351Z,7.67
2022-08-26T10:49:52.280Z,7.40
2022-08-26T10:53:02.133Z,7.30
2022-08-26T10:56:18.009Z,7.67
2022-08-26T10:59:36.793Z,7.83
2022-08-26T11:02:48.215Z,7.23
2022-08-26T11:06:22.171Z,7.47
2022-08-26T11:09:45.213Z,6.93
2022-08-26T11:12:52.667Z,7.13
2022-08-26T11:16:01.187Z,6.53
2022-08-26T11:19:05.063Z,6.43
2022-08-26T11:22:11.633Z,6.07
2022-08-26T11:25:19.730Z,6.07
2022-08-26T11:28:34.610Z,6.67
2022-08-26T11:31:57.117Z,6.30
2022-08-26T11:35:06.466Z,5.83
2022-08-26T11:38:18.376Z,6.43
2022-08-26T11:41:29.061Z,5.90
2022-08-26T11:44:39.761Z,6.17
2022-08-26T11:47:46.532Z,6.50
2022-08-26T11:50:54.770Z,6.33
2022-08-26T11:54:11.816Z,6.97
2022-08-26T11:57:14.903Z,6.75
2022-08-26T12:00:23.428Z,6.55
2022-08-26T12:03:37.865Z,5.85
2022-08-26T12:06:48.220Z,5.75
2022-08-26T12:09:57.730Z,5.97
2022-08-26T12:13:02.348Z,6.43
2022-08-26T12:16:06.854Z,6.00
2022-08-26T12:19:26.285Z,6.05
2022-08-26T12:22:34.488Z,6.25
2022-08-26T12:25:39.354Z,5.75
2022-08-26T12:28:45.227Z,6.75
2022-08-26T12:31:49.754Z,6.03
2022-08-26T12:34:55.055Z,6.47
2022-08-26T12:37:59.152Z,6.22
2022-08-26T12:41:02.653Z,6.30
2022-08-26T12:44:05.824Z,5.80
2022-08-26T12:47:12.889Z,6.80
2022-08-26T12:50:20.709Z,6.28
2022-08-26T12:53:25.556Z,6.05
2022-08-26T12:56:34.307Z,6.55
2022-08-26T12:59:37.388Z,6.32
2022-08-26T13:02:40.408Z,6.15
2022-08-26T13:05:44.783Z,6.30
2022-08-26T13:08:48.830Z,6.17
2022-08-26T13:11:59.633Z,7.17
2022-08-26T13:15:07.712Z,5.93
2022-08-26T13:18:10.704Z,5.83
2022-08-26T13:21:18.773Z,5.93
2022-08-26T13:24:26.211Z,6.50
2022-08-26T13:27:29.256Z,6.23
2022-08-26T13:30:32.468Z,6.30
2022-08-26T13:33:35.639Z,7.30
2022-08-26T13:36:40.105Z,7.40
2022-08-26T13:39:43.167Z,6.97
2022-08-26T13:42:50.106Z,6.27
2022-08-26T13:45:53.359Z,6.97
2022-08-26T13:48:56.446Z,7.27
2022-08-26T13:52:02.924Z,6.97
2022-08-26T13:55:07.891Z,6.73
2022-08-26T13:58:11.355Z,7.47
2022-08-26T14:01:15.610Z,7.23
2022-08-26T14:04:26.984Z,7.17
2022-08-26T14:07:31.927Z,7.37
2022-08-26T14:10:35.058Z,7.27
2022-08-26T14:13:39.169Z,7.70
2022-08-26T14:16:59.061Z,8.60
2022-08-26T14:20:03.956Z,8.00
2022-08-26T14:23:13.963Z,8.07
2022-08-26T14:26:28.335Z,7.70
2022-08-26T14:29:32.546Z,7.50
2022-08-26T14:32:36.882Z,8.57
2022-08-26T14:35:40.039Z,8.30
2022-08-26T14:38:52.575Z,7.17
2022-08-26T14:41:57.319Z,8.07
2022-08-26T14:45:03.029Z,7.73
2022-08-26T14:48:06.228Z,9.10
2022-08-26T14:51:09.235Z,7.63
2022-08-26T14:54:16.087Z,8.20
2022-08-26T14:57:19.112Z,6.90
2022-08-26T15:00:22.115Z,7.60
2022-08-26T15:03:25.165Z,7.30
2022-08-26T15:06:28.975Z,7.07
2022-08-26T15:09:36.307Z,6.37
2022-08-26T15:12:40.281Z,6.50
2022-08-26T15:15:43.304Z,6.00
2022-08-26T15:18:46.303Z,6.00
2022-08-26T15:21:49.764Z,5.73
2022-08-26T15:24:54.369Z,5.13
2022-08-26T15:27:57.376Z,5.27
2022-08-26T15:31:00.559Z,5.87
2022-08-26T15:34:05.767Z,5.00
2022-08-26T15:37:09.609Z,5.20
2022-08-26T15:40:14.220Z,5.47
2022-08-26T15:43:28.113Z,5.80
2022-08-26T15:46:32.381Z,5.40
2022-08-26T15:49:35.514Z,5.30
2022-08-26T15:52:39.511Z,5.03
2022-08-26T15:55:43.873Z,5.07
2022-08-26T15:58:46.886Z,4.90
2022-08-26T16:01:50.932Z,4.53
2022-08-26T16:04:53.976Z,4.60
2022-08-26T16:07:57.741Z,4.50
2022-08-26T16:11:04.468Z,4.37
2022-08-26T16:14:08.318Z,3.90
2022-08-26T16:17:11.494Z,4.10
2022-08-26T16:20:14.715Z,3.70
2022-08-26T16:23:18.296Z,3.10
2022-08-26T16:26:25.213Z,3.10
2022-08-26T16:29:28.681Z,3.00
2022-08-26T16:32:31.666Z,2.70
2022-08-26T16:35:34.954Z,3.23
2022-08-26T16:38:38.770Z,3.63
2022-08-26T16:41:44.213Z,2.93
2022-08-26T16:44:47.416Z,3.93
2022-08-26T16:47:51.296Z,3.67
2022-08-26T16:50:55.497Z,3.63
2022-08-26T16:53:59.782Z,4.00
2022-08-26T16:57:04.179Z,4.07
2022-08-26T17:00:12.459Z,3.90
2022-08-26T17:03:15.870Z,3.67
2022-08-26T17:06:19.072Z,4.13
2022-08-26T17:09:22.509Z,3.87
2022-08-26T17:12:28.274Z,4.37
2022-08-26T17:15:31.395Z,4.60
2022-08-26T17:18:35.719Z,4.57
2022-08-26T17:21:40.598Z,4.43
2022-08-26T17:24:43.734Z,4.53
2022-08-26T17:27:48.410Z,4.70
2022-08-26T17:30:51.616Z,5.50
2022-08-26T17:33:55.417Z,4.97
2022-08-26T17:36:59.032Z,5.30
2022-08-26T17:40:02.395Z,5.70
2022-08-26T17:43:11.687Z,5.37
2022-08-26T17:46:15.340Z,4.60
2022-08-26T17:49:18.400Z,4.63
2022-08-26T17:52:21.474Z,5.53
2022-08-26T17:55:24.565Z,5.13
2022-08-26T17:58:29.147Z,4.80
2022-08-26T18:01:32.337Z,5.50
2022-08-26T18:04:35.495Z,5.97
2022-08-26T18:07:43.719Z,6.20
2022-08-26T18:10:48.066Z,6.00
2022-08-26T18:13:53.106Z,6.23
2022-08-26T18:16:56.273Z,7.10
2022-08-26T18:19:59.518Z,6.67
2022-08-26T18:23:02.581Z,7.47
2022-08-26T18:26:05.635Z,7.90
2022-08-26T18:29:11.126Z,7.57
2022-08-26T18:32:14.414Z,6.83
2022-08-26T18:35:17.469Z,6.97
2022-08-26T18:38:20.461Z,6.60
2022-08-26T18:41:27.674Z,6.93
2022-08-26T18:44:32.190Z,6.23
2022-08-26T18:47:35.514Z,7.10
2022-08-26T18:50:40.734Z,6.83
2022-08-26T18:53:43.742Z,7.10
2022-08-26T18:56:46.922Z,7.23
2022-08-26T18:59:51.298Z,7.60
2022-08-26T19:02:55.992Z,8.33
2022-08-26T19:05:59.209Z,7.80
2022-08-26T19:09:02.862Z,8.13
2022-08-26T19:12:07.886Z,7.70
2022-08-26T19:15:13.490Z,8.23
2022-08-26T19:18:17.582Z,7.83
2022-08-26T19:21:21.988Z,9.03
2022-08-26T19:24:26.030Z,7.63
2022-08-26T19:27:32.261Z,7.83
2022-08-26T19:30:40.372Z,7.47
2022-08-26T19:33:45.346Z,8.40
2022-08-26T19:36:48.378Z,8.50
2022-08-26T19:39:51.442Z,8.07
2022-08-26T19:42:54.742Z,7.67
2022-08-26T19:45:59.210Z,7.60
2022-08-26T19:49:02.272Z,7.13
2022-08-26T19:52:05.982Z,7.13
2022-08-26T19:55:10.692Z,6.87
2022-08-26T19:58:14.468Z,7.30
2022-08-26T20:01:20.161Z,7.17
2022-08-26T20:04:23.512Z,6.77
2022-08-26T20:07:26.677Z,7.40
2022-08-26T20:10:29.720Z,6.97
2022-08-26T20:13:33.071Z,7.03
2022-08-26T20:16:37.456Z,7.70
2022-08-26T20:19:58.345Z,7.63
2022-08-26T20:23:02.400Z,7.53
2022-08-26T20:26:06.355Z,8.00
2022-08-26T20:29:10.597Z,8.07
2022-08-26T20:32:15.015Z,7.83
2022-08-26T20:35:18.267Z,7.53
2022-08-26T20:38:21.707Z,8.17
2022-08-26T20:41:25.744Z,8.07
2022-08-26T20:44:28.764Z,9.17
2022-08-26T20:47:33.502Z,8.10
2022-08-26T20:50:38.974Z,8.17
2022-08-26T20:53:42.518Z,8.50
2022-08-26T20:56:45.571Z,7.37
2022-08-26T20:59:49.071Z,8.60
2022-08-26T21:02:53.427Z,8.87
2022-08-26T21:05:56.447Z,7.83
2022-08-26T21:08:59.471Z,7.60
2022-08-26T21:12:02.652Z,7.17
2022-08-26T21:15:07.384Z,8.00
2022-08-26T21:18:11.842Z,7.77
2022-08-26T21:21:15.999Z,8.03
2022-08-26T21:24:18.987Z,6.87
2022-08-26T21:27:24.427Z,6.50
2022-08-26T21:30:29.831Z,7.00
2022-08-26T21:33:34.670Z,7.07
2022-08-26T21:36:37.703Z,6.70
2022-08-26T21:39:40.682Z,6.87
2022-08-26T21:42:43.690Z,7.07
2022-08-26T21:45:46.946Z,7.50
2022-08-26T21:48:54.539Z,8.00
2022-08-26T21:51:57.680Z,8.40
2022-08-26T21:55:02.540Z,7.90
2022-08-26T21:58:05.586Z,9.33
2022-08-26T22:01:10.239Z,8.23
2022-08-26T22:04:15.203Z,8.40
2022-08-26T22:07:19.948Z,8.83
2022-08-26T22:10:23.201Z,9.13
2022-08-26T22:13:29.390Z,8.60
2022-08-26T22:16:32.452Z,8.77
2022-08-26T22:19:45.896Z,8.33
2022-08-26T22:22:49.746Z,8.60
2022-08-26T22:25:54.365Z,8.43
2022-08-26T22:28:59.537Z,7.87
2022-08-26T22:32:02.729Z,7.20
2022-08-26T22:35:28.270Z,7.20
2022-08-26T22:38:31.841Z,7.97
2022-08-26T22:41:35.234Z,7.27
2022-08-26T22:44:38.235Z,7.77
2022-08-26T22:47:42.518Z,7.50
2022-08-26T22:50:48.142Z,7.37
2022-08-26T22:53:51.234Z,7.77
2022-08-26T22:56:54.234Z,7.50
2022-08-26T22:59:57.405Z,7.83
2022-08-26T23:03:01.234Z,7.53
2022-08-26T23:06:09.418Z,7.83
2022-08-26T23:09:12.625Z,7.43
2022-08-26T23:12:16.264Z,8.20
2022-08-26T23:15:21.238Z,8.27
2022-08-26T23:18:24.236Z,7.47
2022-08-26T23:21:28.600Z,7.60
2022-08-26T23:24:32.132Z,7.70
2022-08-26T23:27:36.274Z,8.23
2022-08-26T23:30:39.380Z,8.70
2022-08-26T23:34:01.007Z,8.90
2022-08-26T23:37:31.405Z,8.97
2022-08-26T23:40:36.283Z,9.37
2022-08-26T23:43:39.934Z,8.00
2022-08-26T23:46:43.565Z,8.70
2022-08-26T23:49:46.584Z,8.43
2022-08-26T23:53:08.927Z,7.67
2022-08-26T23:56:15.858Z,7.57
2022-08-26T23:59:18.980Z,7.73
